sensor_id;sensor_type;location;lat;lon;timestamp;temperature;humidity
30304;DHT22;17112;48.636;10.152;2022-11-20T00:01:49;9.10;72.70
30304;DHT22;17112;48.636;10.152;2022-11-20T00:04:14;9.10;72.60
30304;DHT22;17112;48.636;10.152;2022-11-20T00:06:40;9.10;72.70
30304;DHT22;17112;48.636;10.152;2022-11-20T00:09:06;9.10;72.80
30304;DHT22;17112;48.636;10.152;2022-11-20T00:11:32;9.00;72.80
30304;DHT22;17112;48.636;10.152;2022-11-20T00:14:00;9.10;73.00
30304;DHT22;17112;48.636;10.152;2022-11-20T00:16:27;9.10;72.90
30304;DHT22;17112;48.636;10.152;2022-11-20T00:18:54;9.10;72.70
30304;DHT22;17112;48.636;10.152;2022-11-20T00:21:22;9.10;72.80
30304;DHT22;17112;48.636;10.152;2022-11-20T00:23:49;9.10;72.90
30304;DHT22;17112;48.636;10.152;2022-11-20T00:26:17;9.10;72.90
30304;DHT22;17112;48.636;10.152;2022-11-20T00:28:44;9.20;72.90
30304;DHT22;17112;48.636;10.152;2022-11-20T00:31:15;9.20;72.80
30304;DHT22;17112;48.636;10.152;2022-11-20T00:33:42;9.20;72.80
30304;DHT22;17112;48.636;10.152;2022-11-20T00:36:10;9.20;72.70
30304;DHT22;17112;48.636;10.152;2022-11-20T00:38:36;9.20;72.70
30304;DHT22;17112;48.636;10.152;2022-11-20T00:41:05;9.20;72.80
30304;DHT22;17112;48.636;10.152;2022-11-20T00:43:31;9.20;72.70
30304;DHT22;17112;48.636;10.152;2022-11-20T00:46:05;9.20;72.40
30304;DHT22;17112;48.636;10.152;2022-11-20T00:48:32;9.20;72.10
30304;DHT22;17112;48.636;10.152;2022-11-20T00:50:58;9.20;71.90
30304;DHT22;17112;48.636;10.152;2022-11-20T00:53:24;9.20;71.80
30304;DHT22;17112;48.636;10.152;2022-11-20T00:56:04;9.10;71.60
30304;DHT22;17112;48.636;10.152;2022-11-20T00:58:33;9.00;71.60
30304;DHT22;17112;48.636;10.152;2022-11-20T01:03:27;8.90;71.70
30304;DHT22;17112;48.636;10.152;2022-11-20T01:05:53;8.90;71.70
30304;DHT22;17112;48.636;10.152;2022-11-20T01:08:18;8.90;71.70
30304;DHT22;17112;48.636;10.152;2022-11-20T01:10:44;8.90;71.70
30304;DHT22;17112;48.636;10.152;2022-11-20T01:13:10;8.80;71.60
30304;DHT22;17112;48.636;10.152;2022-11-20T01:15:54;8.80;71.70
30304;DHT22;17112;48.636;10.152;2022-11-20T01:18:19;8.80;71.80
30304;DHT22;17112;48.636;10.152;2022-11-20T01:20:45;8.70;71.80
30304;DHT22;17112;48.636;10.152;2022-11-20T01:23:11;8.70;71.90
30304;DHT22;17112;48.636;10.152;2022-11-20T01:25:36;8.70;72.00
30304;DHT22;17112;48.636;10.152;2022-11-20T01:28:02;8.70;72.10
30304;DHT22;17112;48.636;10.152;2022-11-20T01:30:28;8.70;72.10
30304;DHT22;17112;48.636;10.152;2022-11-20T01:32:55;8.70;72.20
30304;DHT22;17112;48.636;10.152;2022-11-20T01:35:21;8.70;72.30
30304;DHT22;17112;48.636;10.152;2022-11-20T01:37:46;8.70;72.30
30304;DHT22;17112;48.636;10.152;2022-11-20T01:40:12;8.70;72.30
30304;DHT22;17112;48.636;10.152;2022-11-20T01:42:38;8.60;72.30
30304;DHT22;17112;48.636;10.152;2022-11-20T01:45:50;8.70;72.40
30304;DHT22;17112;48.636;10.152;2022-11-20T01:48:19;8.70;72.60
30304;DHT22;17112;48.636;10.152;2022-11-20T01:50:45;8.60;72.40
30304;DHT22;17112;48.636;10.152;2022-11-20T01:53:15;8.60;72.30
30304;DHT22;17112;48.636;10.152;2022-11-20T01:55:46;8.60;72.40
30304;DHT22;17112;48.636;10.152;2022-11-20T01:58:14;8.60;72.30
30304;DHT22;17112;48.636;10.152;2022-11-20T02:00:40;8.60;72.30
30304;DHT22;17112;48.636;10.152;2022-11-20T02:03:12;8.60;72.20
30304;DHT22;17112;48.636;10.152;2022-11-20T02:08:18;8.50;72.20
30304;DHT22;17112;48.636;10.152;2022-11-20T02:10:44;8.50;72.20
30304;DHT22;17112;48.636;10.152;2022-11-20T02:13:10;8.40;72.10
30304;DHT22;17112;48.636;10.152;2022-11-20T02:15:55;8.40;72.20
30304;DHT22;17112;48.636;10.152;2022-11-20T02:18:21;8.40;72.30
30304;DHT22;17112;48.636;10.152;2022-11-20T02:20:50;8.30;72.10
30304;DHT22;17112;48.636;10.152;2022-11-20T02:25:54;8.30;72.20
30304;DHT22;17112;48.636;10.152;2022-11-20T02:28:21;8.20;72.30
30304;DHT22;17112;48.636;10.152;2022-11-20T02:30:47;8.20;72.30
30304;DHT22;17112;48.636;10.152;2022-11-20T02:33:13;8.20;72.30
30304;DHT22;17112;48.636;10.152;2022-11-20T02:35:44;8.20;72.20
30304;DHT22;17112;48.636;10.152;2022-11-20T02:38:11;8.10;72.20
30304;DHT22;17112;48.636;10.152;2022-11-20T02:40:37;8.10;72.20
30304;DHT22;17112;48.636;10.152;2022-11-20T02:43:02;8.10;72.30
30304;DHT22;17112;48.636;10.152;2022-11-20T02:45:28;8.10;72.40
30304;DHT22;17112;48.636;10.152;2022-11-20T02:47:53;8.10;72.40
30304;DHT22;17112;48.636;10.152;2022-11-20T02:50:19;8.00;72.40
30304;DHT22;17112;48.636;10.152;2022-11-20T02:52:45;8.00;72.40
30304;DHT22;17112;48.636;10.152;2022-11-20T02:55:11;8.00;72.50
30304;DHT22;17112;48.636;10.152;2022-11-20T02:57:37;8.00;72.50
30304;DHT22;17112;48.636;10.152;2022-11-20T03:00:04;7.90;72.50
30304;DHT22;17112;48.636;10.152;2022-11-20T03:02:30;8.00;72.80
30304;DHT22;17112;48.636;10.152;2022-11-20T03:04:56;7.90;72.70
30304;DHT22;17112;48.636;10.152;2022-11-20T03:07:22;7.90;72.70
30304;DHT22;17112;48.636;10.152;2022-11-20T03:09:47;7.90;72.70
30304;DHT22;17112;48.636;10.152;2022-11-20T03:12:13;7.90;72.70
30304;DHT22;17112;48.636;10.152;2022-11-20T03:14:39;7.90;72.70
30304;DHT22;17112;48.636;10.152;2022-11-20T03:17:05;7.90;72.70
30304;DHT22;17112;48.636;10.152;2022-11-20T03:19:31;7.90;72.50
30304;DHT22;17112;48.636;10.152;2022-11-20T03:21:57;7.80;72.40
30304;DHT22;17112;48.636;10.152;2022-11-20T03:24:23;7.90;72.60
30304;DHT22;17112;48.636;10.152;2022-11-20T03:26:48;7.80;72.70
30304;DHT22;17112;48.636;10.152;2022-11-20T03:29:14;7.80;72.70
30304;DHT22;17112;48.636;10.152;2022-11-20T03:31:40;7.80;72.60
30304;DHT22;17112;48.636;10.152;2022-11-20T03:34:07;7.80;72.50
30304;DHT22;17112;48.636;10.152;2022-11-20T03:36:33;7.80;72.50
30304;DHT22;17112;48.636;10.152;2022-11-20T03:39:00;7.70;72.50
30304;DHT22;17112;48.636;10.152;2022-11-20T03:41:27;7.70;72.40
30304;DHT22;17112;48.636;10.152;2022-11-20T03:43:56;7.60;72.40
30304;DHT22;17112;48.636;10.152;2022-11-20T03:46:22;7.60;72.50
30304;DHT22;17112;48.636;10.152;2022-11-20T03:48:49;7.60;72.40
30304;DHT22;17112;48.636;10.152;2022-11-20T03:51:26;7.50;72.50
30304;DHT22;17112;48.636;10.152;2022-11-20T03:53:53;7.50;72.40
30304;DHT22;17112;48.636;10.152;2022-11-20T03:56:23;7.40;72.40
30304;DHT22;17112;48.636;10.152;2022-11-20T03:58:49;7.40;72.30
30304;DHT22;17112;48.636;10.152;2022-11-20T04:01:22;7.40;72.30
30304;DHT22;17112;48.636;10.152;2022-11-20T04:03:49;7.40;72.30
30304;DHT22;17112;48.636;10.152;2022-11-20T04:06:22;7.40;72.40
30304;DHT22;17112;48.636;10.152;2022-11-20T04:08:48;7.40;72.30
30304;DHT22;17112;48.636;10.152;2022-11-20T04:11:15;7.40;72.40
30304;DHT22;17112;48.636;10.152;2022-11-20T04:13:42;7.30;72.40
30304;DHT22;17112;48.636;10.152;2022-11-20T04:16:11;7.30;72.40
30304;DHT22;17112;48.636;10.152;2022-11-20T04:18:36;7.30;72.40
30304;DHT22;17112;48.636;10.152;2022-11-20T04:21:04;7.30;72.40
30304;DHT22;17112;48.636;10.152;2022-11-20T04:23:30;7.30;72.50
30304;DHT22;17112;48.636;10.152;2022-11-20T04:26:08;7.30;72.60
30304;DHT22;17112;48.636;10.152;2022-11-20T04:28:34;7.30;72.80
30304;DHT22;17112;48.636;10.152;2022-11-20T04:31:18;7.30;72.80
30304;DHT22;17112;48.636;10.152;2022-11-20T04:33:44;7.30;72.80
30304;DHT22;17112;48.636;10.152;2022-11-20T04:36:15;7.30;72.70
30304;DHT22;17112;48.636;10.152;2022-11-20T04:38:42;7.30;72.70
30304;DHT22;17112;48.636;10.152;2022-11-20T04:41:12;7.30;72.60
30304;DHT22;17112;48.636;10.152;2022-11-20T04:43:40;7.30;72.50
30304;DHT22;17112;48.636;10.152;2022-11-20T04:46:05;7.30;72.40
30304;DHT22;17112;48.636;10.152;2022-11-20T04:48:31;7.30;72.40
30304;DHT22;17112;48.636;10.152;2022-11-20T04:50:57;7.30;72.40
30304;DHT22;17112;48.636;10.152;2022-11-20T04:53:23;7.30;72.20
30304;DHT22;17112;48.636;10.152;2022-11-20T04:55:49;7.30;72.00
30304;DHT22;17112;48.636;10.152;2022-11-20T04:58:16;7.30;72.00
30304;DHT22;17112;48.636;10.152;2022-11-20T05:00:41;7.20;72.00
30304;DHT22;17112;48.636;10.152;2022-11-20T05:03:07;7.20;72.10
30304;DHT22;17112;48.636;10.152;2022-11-20T05:05:36;7.10;72.00
30304;DHT22;17112;48.636;10.152;2022-11-20T05:08:01;7.10;72.00
30304;DHT22;17112;48.636;10.152;2022-11-20T05:10:27;7.10;72.10
30304;DHT22;17112;48.636;10.152;2022-11-20T05:12:53;7.10;72.90
30304;DHT22;17112;48.636;10.152;2022-11-20T05:15:19;7.00;72.20
30304;DHT22;17112;48.636;10.152;2022-11-20T05:17:48;7.00;72.20
30304;DHT22;17112;48.636;10.152;2022-11-20T05:20:14;7.00;72.20
30304;DHT22;17112;48.636;10.152;2022-11-20T05:22:40;6.90;72.20
30304;DHT22;17112;48.636;10.152;2022-11-20T05:25:06;6.90;72.30
30304;DHT22;17112;48.636;10.152;2022-11-20T05:27:31;6.90;72.30
30304;DHT22;17112;48.636;10.152;2022-11-20T05:29:57;6.90;72.40
30304;DHT22;17112;48.636;10.152;2022-11-20T05:32:22;6.90;72.40
30304;DHT22;17112;48.636;10.152;2022-11-20T05:34:53;6.90;72.40
30304;DHT22;17112;48.636;10.152;2022-11-20T05:37:19;6.90;72.50
30304;DHT22;17112;48.636;10.152;2022-11-20T05:39:45;6.90;72.60
30304;DHT22;17112;48.636;10.152;2022-11-20T05:42:10;6.90;72.60
30304;DHT22;17112;48.636;10.152;2022-11-20T05:44:54;6.90;72.60
30304;DHT22;17112;48.636;10.152;2022-11-20T05:47:20;6.90;72.60
30304;DHT22;17112;48.636;10.152;2022-11-20T05:49:46;6.90;72.50
30304;DHT22;17112;48.636;10.152;2022-11-20T05:52:11;6.90;72.50
30304;DHT22;17112;48.636;10.152;2022-11-20T05:54:37;6.90;72.50
30304;DHT22;17112;48.636;10.152;2022-11-20T05:57:03;6.90;72.40
30304;DHT22;17112;48.636;10.152;2022-11-20T05:59:30;6.90;72.30
30304;DHT22;17112;48.636;10.152;2022-11-20T06:01:56;6.90;73.00
30304;DHT22;17112;48.636;10.152;2022-11-20T06:04:21;6.90;72.40
30304;DHT22;17112;48.636;10.152;2022-11-20T06:06:47;6.90;72.60
30304;DHT22;17112;48.636;10.152;2022-11-20T06:09:13;6.90;72.60
30304;DHT22;17112;48.636;10.152;2022-11-20T06:11:38;6.90;72.60
30304;DHT22;17112;48.636;10.152;2022-11-20T06:14:04;6.90;73.20
30304;DHT22;17112;48.636;10.152;2022-11-20T06:16:29;6.90;72.40
30304;DHT22;17112;48.636;10.152;2022-11-20T06:18:55;6.90;72.40
30304;DHT22;17112;48.636;10.152;2022-11-20T06:21:22;6.90;72.40
30304;DHT22;17112;48.636;10.152;2022-11-20T06:23:48;6.90;72.50
30304;DHT22;17112;48.636;10.152;2022-11-20T06:26:24;6.80;72.50
30304;DHT22;17112;48.636;10.152;2022-11-20T06:28:51;6.80;72.50
30304;DHT22;17112;48.636;10.152;2022-11-20T06:31:19;6.80;72.60
30304;DHT22;17112;48.636;10.152;2022-11-20T06:33:45;6.80;72.70
30304;DHT22;17112;48.636;10.152;2022-11-20T06:36:13;6.80;72.70
30304;DHT22;17112;48.636;10.152;2022-11-20T06:38:39;6.80;72.80
30304;DHT22;17112;48.636;10.152;2022-11-20T06:41:06;6.80;72.70
30304;DHT22;17112;48.636;10.152;2022-11-20T06:43:32;6.90;73.00
30304;DHT22;17112;48.636;10.152;2022-11-20T06:45:59;6.90;72.80
30304;DHT22;17112;48.636;10.152;2022-11-20T06:48:26;6.90;72.80
30304;DHT22;17112;48.636;10.152;2022-11-20T06:50:52;6.90;72.80
30304;DHT22;17112;48.636;10.152;2022-11-20T06:53:18;6.90;72.90
30304;DHT22;17112;48.636;10.152;2022-11-20T06:55:45;6.90;72.90
30304;DHT22;17112;48.636;10.152;2022-11-20T06:58:11;6.90;72.80
30304;DHT22;17112;48.636;10.152;2022-11-20T07:00:37;6.90;72.90
30304;DHT22;17112;48.636;10.152;2022-11-20T07:03:04;6.90;72.90
30304;DHT22;17112;48.636;10.152;2022-11-20T07:05:30;7.00;72.90
30304;DHT22;17112;48.636;10.152;2022-11-20T07:07:56;7.00;72.90
30304;DHT22;17112;48.636;10.152;2022-11-20T07:10:22;7.00;72.90
30304;DHT22;17112;48.636;10.152;2022-11-20T07:12:52;7.00;72.80
30304;DHT22;17112;48.636;10.152;2022-11-20T07:15:19;7.00;72.90
30304;DHT22;17112;48.636;10.152;2022-11-20T07:17:45;7.10;72.90
30304;DHT22;17112;48.636;10.152;2022-11-20T07:20:11;7.00;72.90
30304;DHT22;17112;48.636;10.152;2022-11-20T07:22:37;7.10;73.00
30304;DHT22;17112;48.636;10.152;2022-11-20T07:25:03;7.10;72.90
30304;DHT22;17112;48.636;10.152;2022-11-20T07:27:29;7.10;72.90
30304;DHT22;17112;48.636;10.152;2022-11-20T07:29:55;7.10;72.90
30304;DHT22;17112;48.636;10.152;2022-11-20T07:32:21;7.20;72.90
30304;DHT22;17112;48.636;10.152;2022-11-20T07:34:47;7.20;72.80
30304;DHT22;17112;48.636;10.152;2022-11-20T07:37:13;7.20;72.70
30304;DHT22;17112;48.636;10.152;2022-11-20T07:39:38;7.20;72.60
30304;DHT22;17112;48.636;10.152;2022-11-20T07:42:05;7.20;72.50
30304;DHT22;17112;48.636;10.152;2022-11-20T07:44:31;7.20;72.50
30304;DHT22;17112;48.636;10.152;2022-11-20T07:46:57;7.20;72.40
30304;DHT22;17112;48.636;10.152;2022-11-20T07:49:22;7.20;72.30
30304;DHT22;17112;48.636;10.152;2022-11-20T07:51:50;7.20;72.30
30304;DHT22;17112;48.636;10.152;2022-11-20T07:54:16;7.20;72.40
30304;DHT22;17112;48.636;10.152;2022-11-20T07:56:42;7.20;72.40
30304;DHT22;17112;48.636;10.152;2022-11-20T07:59:07;7.20;72.50
30304;DHT22;17112;48.636;10.152;2022-11-20T08:01:33;7.20;72.50
30304;DHT22;17112;48.636;10.152;2022-11-20T08:03:59;7.20;72.50
30304;DHT22;17112;48.636;10.152;2022-11-20T08:06:24;7.30;72.60
30304;DHT22;17112;48.636;10.152;2022-11-20T08:08:51;7.30;72.60
30304;DHT22;17112;48.636;10.152;2022-11-20T08:11:16;7.40;72.60
30304;DHT22;17112;48.636;10.152;2022-11-20T08:14:01;7.30;72.50
30304;DHT22;17112;48.636;10.152;2022-11-20T08:16:44;7.30;72.50
30304;DHT22;17112;48.636;10.152;2022-11-20T08:19:10;7.30;72.40
30304;DHT22;17112;48.636;10.152;2022-11-20T08:21:36;7.30;72.40
30304;DHT22;17112;48.636;10.152;2022-11-20T08:24:02;7.40;72.40
30304;DHT22;17112;48.636;10.152;2022-11-20T08:26:28;7.40;72.40
30304;DHT22;17112;48.636;10.152;2022-11-20T08:28:55;7.40;72.40
30304;DHT22;17112;48.636;10.152;2022-11-20T08:31:22;7.40;72.60
30304;DHT22;17112;48.636;10.152;2022-11-20T08:33:48;7.50;72.70
30304;DHT22;17112;48.636;10.152;2022-11-20T08:36:13;7.50;72.50
30304;DHT22;17112;48.636;10.152;2022-11-20T08:38:39;7.50;72.50
30304;DHT22;17112;48.636;10.152;2022-11-20T08:41:05;7.60;72.50
30304;DHT22;17112;48.636;10.152;2022-11-20T08:43:52;7.60;72.40
30304;DHT22;17112;48.636;10.152;2022-11-20T08:46:18;7.60;72.40
30304;DHT22;17112;48.636;10.152;2022-11-20T08:48:44;7.70;72.40
30304;DHT22;17112;48.636;10.152;2022-11-20T08:51:11;7.70;72.30
30304;DHT22;17112;48.636;10.152;2022-11-20T08:53:38;7.80;72.40
30304;DHT22;17112;48.636;10.152;2022-11-20T08:56:05;7.80;72.30
30304;DHT22;17112;48.636;10.152;2022-11-20T08:58:31;7.80;72.10
30304;DHT22;17112;48.636;10.152;2022-11-20T09:00:57;7.90;72.00
30304;DHT22;17112;48.636;10.152;2022-11-20T09:03:23;7.90;71.90
30304;DHT22;17112;48.636;10.152;2022-11-20T09:05:48;8.00;72.10
30304;DHT22;17112;48.636;10.152;2022-11-20T09:08:14;8.00;72.00
30304;DHT22;17112;48.636;10.152;2022-11-20T09:10:40;8.10;71.90
30304;DHT22;17112;48.636;10.152;2022-11-20T09:13:06;8.10;71.90
30304;DHT22;17112;48.636;10.152;2022-11-20T09:15:32;8.20;71.60
30304;DHT22;17112;48.636;10.152;2022-11-20T09:17:59;8.20;71.60
30304;DHT22;17112;48.636;10.152;2022-11-20T09:20:27;8.20;71.50
30304;DHT22;17112;48.636;10.152;2022-11-20T09:22:54;8.20;71.40
30304;DHT22;17112;48.636;10.152;2022-11-20T09:25:20;8.30;71.40
30304;DHT22;17112;48.636;10.152;2022-11-20T09:27:45;8.30;71.40
30304;DHT22;17112;48.636;10.152;2022-11-20T09:30:12;8.30;71.30
30304;DHT22;17112;48.636;10.152;2022-11-20T09:32:39;8.30;71.30
30304;DHT22;17112;48.636;10.152;2022-11-20T09:35:05;8.30;71.30
30304;DHT22;17112;48.636;10.152;2022-11-20T09:37:31;8.30;71.30
30304;DHT22;17112;48.636;10.152;2022-11-20T09:39:57;8.40;71.40
30304;DHT22;17112;48.636;10.152;2022-11-20T09:45:16;8.40;71.30
30304;DHT22;17112;48.636;10.152;2022-11-20T09:50:49;8.50;71.30
30304;DHT22;17112;48.636;10.152;2022-11-20T09:53:21;8.40;71.00
30304;DHT22;17112;48.636;10.152;2022-11-20T09:55:48;8.40;70.80
30304;DHT22;17112;48.636;10.152;2022-11-20T09:58:39;8.40;71.00
30304;DHT22;17112;48.636;10.152;2022-11-20T10:01:17;8.40;71.10
30304;DHT22;17112;48.636;10.152;2022-11-20T10:03:52;8.50;71.10
30304;DHT22;17112;48.636;10.152;2022-11-20T10:06:24;8.50;71.10
30304;DHT22;17112;48.636;10.152;2022-11-20T10:09:14;8.50;71.80
30304;DHT22;17112;48.636;10.152;2022-11-20T10:12:13;8.50;71.00
30304;DHT22;17112;48.636;10.152;2022-11-20T10:18:11;8.50;70.90
30304;DHT22;17112;48.636;10.152;2022-11-20T10:20:55;8.60;71.10
30304;DHT22;17112;48.636;10.152;2022-11-20T10:23:42;8.60;71.20
30304;DHT22;17112;48.636;10.152;2022-11-20T10:29:17;8.70;71.30
30304;DHT22;17112;48.636;10.152;2022-11-20T10:32:00;8.70;71.20
30304;DHT22;17112;48.636;10.152;2022-11-20T10:34:54;8.70;71.10
30304;DHT22;17112;48.636;10.152;2022-11-20T10:37:25;8.80;71.00
30304;DHT22;17112;48.636;10.152;2022-11-20T10:42:44;8.80;71.10
30304;DHT22;17112;48.636;10.152;2022-11-20T10:48:14;8.90;71.30
30304;DHT22;17112;48.636;10.152;2022-11-20T11:01:45;9.10;71.20
30304;DHT22;17112;48.636;10.152;2022-11-20T11:04:38;9.20;71.20
30304;DHT22;17112;48.636;10.152;2022-11-20T11:07:15;9.20;71.20
30304;DHT22;17112;48.636;10.152;2022-11-20T11:09:53;9.30;71.40
30304;DHT22;17112;48.636;10.152;2022-11-20T11:12:21;9.30;71.30
30304;DHT22;17112;48.636;10.152;2022-11-20T11:14:48;9.30;71.20
30304;DHT22;17112;48.636;10.152;2022-11-20T11:17:33;9.30;71.10
30304;DHT22;17112;48.636;10.152;2022-11-20T11:22:29;9.40;71.10
30304;DHT22;17112;48.636;10.152;2022-11-20T11:24:56;9.40;70.90
30304;DHT22;17112;48.636;10.152;2022-11-20T11:27:21;9.40;71.10
30304;DHT22;17112;48.636;10.152;2022-11-20T11:29:47;9.40;71.20
30304;DHT22;17112;48.636;10.152;2022-11-20T11:32:14;9.40;71.20
30304;DHT22;17112;48.636;10.152;2022-11-20T11:34:40;9.40;71.30
30304;DHT22;17112;48.636;10.152;2022-11-20T11:37:18;9.40;71.30
30304;DHT22;17112;48.636;10.152;2022-11-20T11:39:46;9.40;71.30
30304;DHT22;17112;48.636;10.152;2022-11-20T11:42:18;9.40;71.30
30304;DHT22;17112;48.636;10.152;2022-11-20T11:44:46;9.40;71.40
30304;DHT22;17112;48.636;10.152;2022-11-20T11:47:36;9.40;71.40
30304;DHT22;17112;48.636;10.152;2022-11-20T11:50:14;9.40;71.40
30304;DHT22;17112;48.636;10.152;2022-11-20T11:57:52;9.50;71.40
30304;DHT22;17112;48.636;10.152;2022-11-20T12:00:21;9.50;71.30
30304;DHT22;17112;48.636;10.152;2022-11-20T12:05:20;9.50;71.30
30304;DHT22;17112;48.636;10.152;2022-11-20T12:10:33;9.40;71.40
30304;DHT22;17112;48.636;10.152;2022-11-20T12:13:08;9.40;71.30
30304;DHT22;17112;48.636;10.152;2022-11-20T12:15:36;9.40;71.50
30304;DHT22;17112;48.636;10.152;2022-11-20T12:18:09;9.40;71.80
30304;DHT22;17112;48.636;10.152;2022-11-20T12:21:28;9.40;71.90
30304;DHT22;17112;48.636;10.152;2022-11-20T12:29:31;9.40;71.20
30304;DHT22;17112;48.636;10.152;2022-11-20T12:40:35;9.30;72.10
30304;DHT22;17112;48.636;10.152;2022-11-20T12:43:24;9.40;72.20
30304;DHT22;17112;48.636;10.152;2022-11-20T12:49:08;9.50;72.10
30304;DHT22;17112;48.636;10.152;2022-11-20T12:51:48;9.50;72.00
30304;DHT22;17112;48.636;10.152;2022-11-20T13:05:31;9.70;71.10
30304;DHT22;17112;48.636;10.152;2022-11-20T13:08:00;9.70;70.90
30304;DHT22;17112;48.636;10.152;2022-11-20T13:10:41;9.70;70.90
30304;DHT22;17112;48.636;10.152;2022-11-20T13:16:04;9.60;70.70
30304;DHT22;17112;48.636;10.152;2022-11-20T13:18:38;9.70;71.10
30304;DHT22;17112;48.636;10.152;2022-11-20T13:21:40;9.70;71.10
30304;DHT22;17112;48.636;10.152;2022-11-20T13:24:27;9.70;70.70
30304;DHT22;17112;48.636;10.152;2022-11-20T13:29:42;9.70;70.40
30304;DHT22;17112;48.636;10.152;2022-11-20T13:32:18;9.80;70.70
30304;DHT22;17112;48.636;10.152;2022-11-20T13:35:03;9.80;70.80
30304;DHT22;17112;48.636;10.152;2022-11-20T13:37:38;9.90;70.80
30304;DHT22;17112;48.636;10.152;2022-11-20T13:42:44;9.90;69.70
30304;DHT22;17112;48.636;10.152;2022-11-20T13:45:28;9.90;69.40
30304;DHT22;17112;48.636;10.152;2022-11-20T13:47:55;9.90;69.60
30304;DHT22;17112;48.636;10.152;2022-11-20T13:55:59;10.00;70.70
30304;DHT22;17112;48.636;10.152;2022-11-20T14:01:19;10.00;69.40
30304;DHT22;17112;48.636;10.152;2022-11-20T14:03:47;10.00;69.90
30304;DHT22;17112;48.636;10.152;2022-11-20T14:06:32;10.00;69.70
30304;DHT22;17112;48.636;10.152;2022-11-20T14:08:59;10.10;69.60
30304;DHT22;17112;48.636;10.152;2022-11-20T14:11:30;10.10;69.50
30304;DHT22;17112;48.636;10.152;2022-11-20T14:14:13;10.10;69.20
30304;DHT22;17112;48.636;10.152;2022-11-20T14:16:39;10.00;69.00
30304;DHT22;17112;48.636;10.152;2022-11-20T14:21:49;9.90;68.40
30304;DHT22;17112;48.636;10.152;2022-11-20T14:24:20;9.90;69.00
30304;DHT22;17112;48.636;10.152;2022-11-20T14:26:47;9.90;68.50
30304;DHT22;17112;48.636;10.152;2022-11-20T14:29:15;9.90;69.20
30304;DHT22;17112;48.636;10.152;2022-11-20T14:31:42;9.80;69.00
30304;DHT22;17112;48.636;10.152;2022-11-20T14:34:21;9.80;68.70
30304;DHT22;17112;48.636;10.152;2022-11-20T14:36:48;9.80;68.40
30304;DHT22;17112;48.636;10.152;2022-11-20T14:39:21;9.80;68.40
30304;DHT22;17112;48.636;10.152;2022-11-20T14:41:51;9.80;68.10
30304;DHT22;17112;48.636;10.152;2022-11-20T14:44:17;9.70;67.70
30304;DHT22;17112;48.636;10.152;2022-11-20T14:46:43;9.70;67.90
30304;DHT22;17112;48.636;10.152;2022-11-20T14:49:10;9.60;68.10
30304;DHT22;17112;48.636;10.152;2022-11-20T14:51:38;9.60;67.90
30304;DHT22;17112;48.636;10.152;2022-11-20T14:54:18;9.60;67.90
30304;DHT22;17112;48.636;10.152;2022-11-20T14:56:58;9.60;67.90
30304;DHT22;17112;48.636;10.152;2022-11-20T14:59:25;9.60;68.00
30304;DHT22;17112;48.636;10.152;2022-11-20T15:02:08;9.50;68.00
30304;DHT22;17112;48.636;10.152;2022-11-20T15:04:57;9.50;67.80
30304;DHT22;17112;48.636;10.152;2022-11-20T15:07:33;9.50;67.00
30304;DHT22;17112;48.636;10.152;2022-11-20T15:10:08;9.50;67.30
30304;DHT22;17112;48.636;10.152;2022-11-20T15:12:47;9.40;66.90
30304;DHT22;17112;48.636;10.152;2022-11-20T15:15:19;9.40;67.00
30304;DHT22;17112;48.636;10.152;2022-11-20T15:17:46;9.40;67.30
30304;DHT22;17112;48.636;10.152;2022-11-20T15:20:14;9.30;67.50
30304;DHT22;17112;48.636;10.152;2022-11-20T15:22:41;9.30;67.50
30304;DHT22;17112;48.636;10.152;2022-11-20T15:25:17;9.30;68.40
30304;DHT22;17112;48.636;10.152;2022-11-20T15:27:44;9.40;67.50
30304;DHT22;17112;48.636;10.152;2022-11-20T15:30:19;9.40;67.80
30304;DHT22;17112;48.636;10.152;2022-11-20T15:32:46;9.40;67.50
30304;DHT22;17112;48.636;10.152;2022-11-20T15:35:13;9.40;67.70
30304;DHT22;17112;48.636;10.152;2022-11-20T15:37:38;9.40;67.50
30304;DHT22;17112;48.636;10.152;2022-11-20T15:40:05;9.40;67.40
30304;DHT22;17112;48.636;10.152;2022-11-20T15:42:31;9.30;67.30
30304;DHT22;17112;48.636;10.152;2022-11-20T15:44:57;9.40;67.30
30304;DHT22;17112;48.636;10.152;2022-11-20T15:47:27;9.30;67.30
30304;DHT22;17112;48.636;10.152;2022-11-20T15:49:53;9.30;67.10
30304;DHT22;17112;48.636;10.152;2022-11-20T15:52:19;9.30;67.20
30304;DHT22;17112;48.636;10.152;2022-11-20T15:54:44;9.30;67.20
30304;DHT22;17112;48.636;10.152;2022-11-20T15:57:10;9.20;67.10
30304;DHT22;17112;48.636;10.152;2022-11-20T15:59:36;9.20;67.30
30304;DHT22;17112;48.636;10.152;2022-11-20T16:02:12;9.20;67.30
30304;DHT22;17112;48.636;10.152;2022-11-20T16:04:39;9.20;67.30
30304;DHT22;17112;48.636;10.152;2022-11-20T16:07:04;9.10;67.40
30304;DHT22;17112;48.636;10.152;2022-11-20T16:09:30;9.10;67.50
30304;DHT22;17112;48.636;10.152;2022-11-20T16:11:56;9.10;67.60
30304;DHT22;17112;48.636;10.152;2022-11-20T16:14:24;9.10;67.60
30304;DHT22;17112;48.636;10.152;2022-11-20T16:17:09;9.00;67.70
30304;DHT22;17112;48.636;10.152;2022-11-20T16:19:35;9.00;67.90
30304;DHT22;17112;48.636;10.152;2022-11-20T16:22:00;8.90;68.00
30304;DHT22;17112;48.636;10.152;2022-11-20T16:24:28;8.90;68.00
30304;DHT22;17112;48.636;10.152;2022-11-20T16:26:54;8.80;68.00
30304;DHT22;17112;48.636;10.152;2022-11-20T16:29:20;8.80;68.10
30304;DHT22;17112;48.636;10.152;2022-11-20T16:31:46;8.80;68.20
30304;DHT22;17112;48.636;10.152;2022-11-20T16:34:11;8.70;68.40
30304;DHT22;17112;48.636;10.152;2022-11-20T16:36:40;8.70;68.60
30304;DHT22;17112;48.636;10.152;2022-11-20T16:39:06;8.70;68.80
30304;DHT22;17112;48.636;10.152;2022-11-20T16:41:33;8.60;68.70
30304;DHT22;17112;48.636;10.152;2022-11-20T16:44:01;8.90;69.00
30304;DHT22;17112;48.636;10.152;2022-11-20T16:46:31;8.50;68.90
30304;DHT22;17112;48.636;10.152;2022-11-20T16:49:02;8.50;69.70
30304;DHT22;17112;48.636;10.152;2022-11-20T16:51:31;8.50;69.00
30304;DHT22;17112;48.636;10.152;2022-11-20T16:53:57;8.40;69.00
30304;DHT22;17112;48.636;10.152;2022-11-20T16:56:27;8.40;69.00
30304;DHT22;17112;48.636;10.152;2022-11-20T16:58:55;8.30;69.10
30304;DHT22;17112;48.636;10.152;2022-11-20T17:01:22;8.30;69.10
30304;DHT22;17112;48.636;10.152;2022-11-20T17:03:59;8.30;69.10
30304;DHT22;17112;48.636;10.152;2022-11-20T17:06:30;8.20;68.90
30304;DHT22;17112;48.636;10.152;2022-11-20T17:08:57;8.20;68.90
30304;DHT22;17112;48.636;10.152;2022-11-20T17:11:23;8.10;68.90
30304;DHT22;17112;48.636;10.152;2022-11-20T17:13:49;8.10;69.00
30304;DHT22;17112;48.636;10.152;2022-11-20T17:16:18;8.00;69.10
30304;DHT22;17112;48.636;10.152;2022-11-20T17:18:44;8.00;69.30
30304;DHT22;17112;48.636;10.152;2022-11-20T17:21:10;8.00;69.30